N139H KGGI-KISW
Flight info
| Callsign | N139H |
|---|---|
| Flight time | N/A |
| Altitude | 5000 |
| Route | LMONT T251 FALAR |
| Aircraft | A139/L-V/N |
Departure
| Time | 2026-04-16 10:00 |
|---|---|
| Airport | Grinnell Regional Airport (KGGI) |
Arrival
| Time | N/A |
|---|---|
| Airport | Alexander Field South Wood County Airport (KISW) |
| Time | Latitude | Longitude | Altitude | Speed | Heading |
|---|---|---|---|---|---|
| 2026-04-16 09:50 | 41.70767 | -92.73076 | 1000 ft | 0 kts | 310° |
| 2026-04-16 09:56 | 41.70768 | -92.73080 | 1000 ft | 2 kts | 291° |
| 2026-04-16 09:56 | 41.70770 | -92.73094 | 1000 ft | 0 kts | 281° |
| 2026-04-16 09:56 | 41.70765 | -92.73113 | 1000 ft | 3 kts | 230° |
| 2026-04-16 09:57 | 41.70749 | -92.73132 | 1000 ft | 3 kts | 221° |
| 2026-04-16 09:57 | 41.70730 | -92.73153 | 1001 ft | 2 kts | 208° |
| 2026-04-16 09:57 | 41.70702 | -92.73150 | 1001 ft | 4 kts | 144° |
| 2026-04-16 09:57 | 41.70677 | -92.73113 | 1002 ft | 5 kts | 131° |
| 2026-04-16 09:58 | 41.70654 | -92.73076 | 1002 ft | 5 kts | 129° |
| 2026-04-16 09:58 | 41.70627 | -92.73031 | 1002 ft | 5 kts | 129° |
| 2026-04-16 09:58 | 41.70603 | -92.72990 | 1002 ft | 4 kts | 129° |
| 2026-04-16 09:58 | 41.70585 | -92.72955 | 1002 ft | 3 kts | 110° |
| 2026-04-16 09:59 | 41.70570 | -92.72955 | 1002 ft | 4 kts | 304° |
| 2026-04-16 09:59 | 41.70583 | -92.72970 | 1002 ft | 1 kts | 311° |
| 2026-04-16 09:59 | 41.70583 | -92.72971 | 1002 ft | 0 kts | 311° |
| 2026-04-16 09:59 | 41.70584 | -92.72971 | 1003 ft | 0 kts | 309° |
| 2026-04-16 10:00 | 41.70615 | -92.73024 | 1021 ft | 23 kts | 317° |
| 2026-04-16 10:00 | 41.70820 | -92.73334 | 1267 ft | 59 kts | 316° |
| 2026-04-16 10:00 | 41.71190 | -92.73686 | 1684 ft | 70 kts | 321° |
| 2026-04-16 10:01 | 41.72088 | -92.74204 | 2252 ft | 81 kts | 344° |
| 2026-04-16 10:01 | 41.72595 | -92.73797 | 2560 ft | 84 kts | 22° |
| 2026-04-16 10:01 | 41.72960 | -92.73090 | 2729 ft | 100 kts | 47° |
| 2026-04-16 10:01 | 41.73048 | -92.72082 | 2925 ft | 120 kts | 81° |
| 2026-04-16 10:02 | 41.72953 | -92.70951 | 3176 ft | 126 kts | 79° |
| 2026-04-16 10:02 | 41.73069 | -92.69863 | 3383 ft | 116 kts | 43° |
| 2026-04-16 10:02 | 41.73543 | -92.68924 | 3494 ft | 128 kts | 36° |
| 2026-04-16 10:02 | 41.74076 | -92.67924 | 3691 ft | 135 kts | 37° |
| 2026-04-16 10:03 | 41.74622 | -92.66904 | 3917 ft | 135 kts | 36° |
| 2026-04-16 10:03 | 41.75170 | -92.65887 | 4104 ft | 136 kts | 36° |
| 2026-04-16 10:03 | 41.75730 | -92.64851 | 4311 ft | 136 kts | 37° |
| 2026-04-16 10:03 | 41.76288 | -92.63817 | 4560 ft | 136 kts | 37° |
| 2026-04-16 10:04 | 41.76844 | -92.62787 | 4779 ft | 137 kts | 36° |
| 2026-04-16 10:04 | 41.77401 | -92.61755 | 4979 ft | 137 kts | 35° |
| 2026-04-16 10:04 | 41.77974 | -92.60697 | 4979 ft | 142 kts | 34° |
| 2026-04-16 10:04 | 41.78566 | -92.59615 | 4983 ft | 144 kts | 35° |
| 2026-04-16 10:05 | 41.79156 | -92.58522 | 4993 ft | 144 kts | 34° |
| 2026-04-16 10:05 | 41.79746 | -92.57427 | 4981 ft | 145 kts | 34° |
| 2026-04-16 10:05 | 41.80347 | -92.56319 | 4966 ft | 145 kts | 34° |
| 2026-04-16 10:05 | 41.80938 | -92.55222 | 4965 ft | 144 kts | 34° |
| 2026-04-16 10:06 | 41.81524 | -92.54136 | 4963 ft | 144 kts | 34° |
| 2026-04-16 10:06 | 41.82112 | -92.53046 | 4968 ft | 143 kts | 34° |
| 2026-04-16 10:06 | 41.82697 | -92.51963 | 4968 ft | 143 kts | 34° |
| 2026-04-16 10:06 | 41.83365 | -92.51061 | 4991 ft | 129 kts | 7° |
| 2026-04-16 10:07 | 41.84247 | -92.50796 | 4931 ft | 131 kts | 354° |
| 2026-04-16 10:07 | 41.85144 | -92.50614 | 5001 ft | 128 kts | 352° |
| 2026-04-16 10:07 | 41.86042 | -92.50462 | 4977 ft | 128 kts | 351° |
| 2026-04-16 10:07 | 41.86928 | -92.50326 | 4961 ft | 128 kts | 351° |
| 2026-04-16 10:08 | 41.87816 | -92.50195 | 4959 ft | 128 kts | 350° |
| 2026-04-16 10:08 | 41.88703 | -92.50066 | 4954 ft | 128 kts | 350° |
| 2026-04-16 10:08 | 41.89600 | -92.49938 | 4961 ft | 127 kts | 350° |
| 2026-04-16 10:08 | 41.90492 | -92.49812 | 4958 ft | 128 kts | 350° |
| 2026-04-16 10:09 | 41.91380 | -92.49689 | 4959 ft | 128 kts | 350° |
| 2026-04-16 10:09 | 41.92260 | -92.49563 | 4970 ft | 127 kts | 350° |
| 2026-04-16 10:09 | 41.93161 | -92.49436 | 4972 ft | 127 kts | 350° |
| 2026-04-16 10:09 | 41.94044 | -92.49313 | 4975 ft | 127 kts | 350° |
| 2026-04-16 10:10 | 41.94927 | -92.49189 | 4970 ft | 127 kts | 350° |
| 2026-04-16 10:10 | 41.95811 | -92.49066 | 4966 ft | 128 kts | 350° |
| 2026-04-16 10:10 | 41.96701 | -92.48940 | 4979 ft | 127 kts | 349° |
| 2026-04-16 10:10 | 41.97596 | -92.48817 | 4962 ft | 128 kts | 350° |
| 2026-04-16 10:11 | 41.98483 | -92.48692 | 4963 ft | 128 kts | 351° |
| 2026-04-16 10:11 | 41.99369 | -92.48568 | 4971 ft | 127 kts | 351° |
| 2026-04-16 10:11 | 42.00253 | -92.48443 | 4958 ft | 127 kts | 350° |
| 2026-04-16 10:11 | 42.01141 | -92.48318 | 4945 ft | 128 kts | 350° |
| 2026-04-16 10:12 | 42.02032 | -92.48194 | 4946 ft | 128 kts | 350° |
| 2026-04-16 10:12 | 42.02913 | -92.48071 | 4956 ft | 127 kts | 351° |
| 2026-04-16 10:12 | 42.03806 | -92.47945 | 4955 ft | 127 kts | 350° |
| 2026-04-16 10:12 | 42.04692 | -92.47820 | 4957 ft | 127 kts | 350° |
| 2026-04-16 10:13 | 42.05580 | -92.47697 | 4953 ft | 128 kts | 351° |
| 2026-04-16 10:13 | 42.06463 | -92.47572 | 4965 ft | 127 kts | 351° |
| 2026-04-16 10:13 | 42.07359 | -92.47440 | 4948 ft | 128 kts | 352° |
| 2026-04-16 10:13 | 42.08247 | -92.47303 | 4957 ft | 127 kts | 352° |
| 2026-04-16 10:14 | 42.09126 | -92.47167 | 4943 ft | 128 kts | 352° |
| 2026-04-16 10:14 | 42.10009 | -92.47029 | 4948 ft | 127 kts | 351° |
| 2026-04-16 10:14 | 42.10901 | -92.46891 | 4963 ft | 127 kts | 351° |
| 2026-04-16 10:14 | 42.11793 | -92.46753 | 4955 ft | 127 kts | 351° |
| 2026-04-16 10:15 | 42.12672 | -92.46618 | 4944 ft | 128 kts | 351° |
| 2026-04-16 10:15 | 42.13557 | -92.46482 | 4943 ft | 128 kts | 352° |
| 2026-04-16 10:15 | 42.14447 | -92.46341 | 4953 ft | 127 kts | 351° |
| 2026-04-16 10:15 | 42.15336 | -92.46204 | 4950 ft | 127 kts | 352° |
| 2026-04-16 10:16 | 42.16209 | -92.46067 | 4947 ft | 128 kts | 352° |
| 2026-04-16 10:16 | 42.17109 | -92.45927 | 4953 ft | 128 kts | 352° |
| 2026-04-16 10:16 | 42.17993 | -92.45787 | 4964 ft | 127 kts | 351° |
| 2026-04-16 10:16 | 42.18877 | -92.45649 | 4957 ft | 127 kts | 351° |
| 2026-04-16 10:17 | 42.19753 | -92.45514 | 4947 ft | 128 kts | 351° |
| 2026-04-16 10:17 | 42.20653 | -92.45372 | 4955 ft | 127 kts | 351° |
| 2026-04-16 10:17 | 42.21538 | -92.45235 | 4946 ft | 128 kts | 351° |
| 2026-04-16 10:17 | 42.22421 | -92.45097 | 4953 ft | 128 kts | 352° |
| 2026-04-16 10:18 | 42.23316 | -92.44957 | 4959 ft | 127 kts | 352° |
| 2026-04-16 10:18 | 42.24198 | -92.44820 | 4958 ft | 127 kts | 352° |
| 2026-04-16 10:18 | 42.25089 | -92.44681 | 4961 ft | 127 kts | 352° |
| 2026-04-16 10:18 | 42.25973 | -92.44544 | 4958 ft | 128 kts | 352° |
| 2026-04-16 10:19 | 42.26860 | -92.44405 | 4966 ft | 128 kts | 352° |
| 2026-04-16 10:19 | 42.27744 | -92.44265 | 4966 ft | 128 kts | 352° |
| 2026-04-16 10:19 | 42.28636 | -92.44125 | 4969 ft | 127 kts | 352° |
| 2026-04-16 10:19 | 42.29525 | -92.43986 | 4963 ft | 128 kts | 351° |
| 2026-04-16 10:20 | 42.30414 | -92.43849 | 4959 ft | 128 kts | 352° |
| 2026-04-16 10:20 | 42.31302 | -92.43710 | 4967 ft | 128 kts | 352° |
| 2026-04-16 10:20 | 42.32197 | -92.43568 | 4976 ft | 127 kts | 351° |
| 2026-04-16 10:20 | 42.33080 | -92.43433 | 4948 ft | 128 kts | 352° |
| 2026-04-16 10:21 | 42.33968 | -92.43291 | 4955 ft | 127 kts | 352° |
| 2026-04-16 10:21 | 42.34841 | -92.43155 | 4948 ft | 127 kts | 352° |
| 2026-04-16 10:21 | 42.35724 | -92.43019 | 4949 ft | 127 kts | 352° |
| 2026-04-16 10:21 | 42.36614 | -92.42883 | 4956 ft | 128 kts | 353° |
| 2026-04-16 10:22 | 42.37511 | -92.42742 | 4965 ft | 129 kts | 353° |
| 2026-04-16 10:22 | 42.38408 | -92.42602 | 4963 ft | 131 kts | 354° |
| 2026-04-16 10:22 | 42.39317 | -92.42459 | 4987 ft | 130 kts | 354° |
| 2026-04-16 10:22 | 42.40229 | -92.42315 | 4982 ft | 131 kts | 354° |
| 2026-04-16 10:23 | 42.41139 | -92.42171 | 4970 ft | 132 kts | 354° |
| 2026-04-16 10:23 | 42.42048 | -92.42026 | 4979 ft | 131 kts | 354° |
| 2026-04-16 10:23 | 42.42966 | -92.41882 | 4978 ft | 131 kts | 354° |
| 2026-04-16 10:23 | 42.43876 | -92.41740 | 4969 ft | 132 kts | 354° |
| 2026-04-16 10:24 | 42.44786 | -92.41599 | 4973 ft | 132 kts | 354° |
| 2026-04-16 10:24 | 42.45697 | -92.41454 | 4976 ft | 132 kts | 354° |
| 2026-04-16 10:24 | 42.46626 | -92.41308 | 4973 ft | 132 kts | 354° |
| 2026-04-16 10:24 | 42.47537 | -92.41163 | 4983 ft | 132 kts | 354° |
| 2026-04-16 10:25 | 42.48457 | -92.41019 | 4965 ft | 133 kts | 354° |
| 2026-04-16 10:25 | 42.49364 | -92.40875 | 4979 ft | 132 kts | 354° |
| 2026-04-16 10:25 | 42.50278 | -92.40732 | 4974 ft | 132 kts | 354° |
| 2026-04-16 10:25 | 42.51197 | -92.40587 | 4969 ft | 132 kts | 354° |
| 2026-04-16 10:26 | 42.52108 | -92.40444 | 4967 ft | 132 kts | 354° |
| 2026-04-16 10:26 | 42.53024 | -92.40300 | 4966 ft | 132 kts | 354° |
| 2026-04-16 10:26 | 42.53943 | -92.40154 | 4967 ft | 131 kts | 354° |
| 2026-04-16 10:26 | 42.54863 | -92.40010 | 4955 ft | 132 kts | 354° |
| 2026-04-16 10:27 | 42.55743 | -92.39632 | 4926 ft | 141 kts | 26° |
| 2026-04-16 10:27 | 42.56467 | -92.38820 | 4930 ft | 134 kts | 24° |
| 2026-04-16 10:27 | 42.57205 | -92.37994 | 4936 ft | 136 kts | 25° |
| 2026-04-16 10:27 | 42.57926 | -92.37167 | 4951 ft | 136 kts | 25° |
| 2026-04-16 10:28 | 42.58647 | -92.36340 | 4952 ft | 136 kts | 26° |
| 2026-04-16 10:28 | 42.59380 | -92.35492 | 4958 ft | 137 kts | 26° |
| 2026-04-16 10:28 | 42.60101 | -92.34653 | 4964 ft | 137 kts | 27° |
| 2026-04-16 10:28 | 42.60827 | -92.33807 | 4963 ft | 137 kts | 26° |
| 2026-04-16 10:29 | 42.61556 | -92.32958 | 4964 ft | 136 kts | 27° |
| 2026-04-16 10:29 | 42.62276 | -92.32119 | 4952 ft | 136 kts | 27° |
| 2026-04-16 10:29 | 42.62997 | -92.31275 | 4954 ft | 136 kts | 27° |
| 2026-04-16 10:29 | 42.63717 | -92.30431 | 4957 ft | 136 kts | 27° |
| 2026-04-16 10:30 | 42.64436 | -92.29586 | 4960 ft | 136 kts | 27° |
| 2026-04-16 10:30 | 42.65153 | -92.28744 | 4959 ft | 136 kts | 26° |
| 2026-04-16 10:30 | 42.65873 | -92.27901 | 4945 ft | 137 kts | 27° |
| 2026-04-16 10:30 | 42.66594 | -92.27054 | 4953 ft | 137 kts | 27° |
| 2026-04-16 10:31 | 42.67320 | -92.26198 | 4967 ft | 137 kts | 27° |
| 2026-04-16 10:31 | 42.68048 | -92.25343 | 4961 ft | 137 kts | 27° |
| 2026-04-16 10:31 | 42.68778 | -92.24483 | 4967 ft | 137 kts | 27° |
| 2026-04-16 10:31 | 42.69494 | -92.23640 | 4965 ft | 137 kts | 27° |
| 2026-04-16 10:32 | 42.70222 | -92.22781 | 4967 ft | 137 kts | 27° |
| 2026-04-16 10:32 | 42.70934 | -92.21938 | 4969 ft | 136 kts | 27° |
| 2026-04-16 10:32 | 42.71655 | -92.21088 | 4955 ft | 136 kts | 27° |
| 2026-04-16 10:32 | 42.72372 | -92.20243 | 4950 ft | 136 kts | 27° |
| 2026-04-16 10:33 | 42.73090 | -92.19396 | 4953 ft | 136 kts | 27° |
| 2026-04-16 10:33 | 42.73808 | -92.18548 | 4949 ft | 136 kts | 27° |
| 2026-04-16 10:33 | 42.74527 | -92.17697 | 4950 ft | 136 kts | 27° |
| 2026-04-16 10:33 | 42.75241 | -92.16853 | 4954 ft | 136 kts | 27° |
| 2026-04-16 10:34 | 42.75962 | -92.16006 | 4950 ft | 137 kts | 28° |
| 2026-04-16 10:34 | 42.76680 | -92.15153 | 4967 ft | 136 kts | 28° |
| 2026-04-16 10:34 | 42.77405 | -92.14297 | 4962 ft | 137 kts | 28° |
| 2026-04-16 10:34 | 42.78124 | -92.13442 | 4968 ft | 136 kts | 27° |
| 2026-04-16 10:35 | 42.78841 | -92.12594 | 4964 ft | 137 kts | 27° |
| 2026-04-16 10:35 | 42.79569 | -92.11732 | 4964 ft | 137 kts | 27° |
| 2026-04-16 10:35 | 42.80292 | -92.10879 | 4965 ft | 137 kts | 27° |
| 2026-04-16 10:35 | 42.81006 | -92.10032 | 4975 ft | 136 kts | 27° |
| 2026-04-16 10:36 | 42.81724 | -92.09181 | 4974 ft | 136 kts | 27° |
| 2026-04-16 10:36 | 42.82456 | -92.08348 | 4994 ft | 132 kts | 21° |
| 2026-04-16 10:36 | 42.83266 | -92.07713 | 4943 ft | 136 kts | 17° |
| 2026-04-16 10:36 | 42.84095 | -92.07076 | 4972 ft | 135 kts | 17° |
| 2026-04-16 10:37 | 42.84911 | -92.06448 | 4971 ft | 136 kts | 17° |
| 2026-04-16 10:37 | 42.85749 | -92.05807 | 4981 ft | 135 kts | 17° |
| 2026-04-16 10:37 | 42.86570 | -92.05179 | 4969 ft | 136 kts | 17° |
| 2026-04-16 10:37 | 42.87399 | -92.04546 | 4969 ft | 135 kts | 17° |
| 2026-04-16 10:38 | 42.88222 | -92.03915 | 4968 ft | 135 kts | 17° |
| 2026-04-16 10:38 | 42.89042 | -92.03290 | 4965 ft | 135 kts | 17° |
| 2026-04-16 10:38 | 42.89870 | -92.02658 | 4968 ft | 135 kts | 17° |
| 2026-04-16 10:38 | 42.90696 | -92.02029 | 4966 ft | 135 kts | 17° |
| 2026-04-16 10:39 | 42.91517 | -92.01401 | 4973 ft | 135 kts | 17° |
| 2026-04-16 10:39 | 42.92336 | -92.00777 | 4961 ft | 136 kts | 17° |
| 2026-04-16 10:39 | 42.93166 | -92.00143 | 4974 ft | 135 kts | 17° |
| 2026-04-16 10:39 | 42.93996 | -91.99512 | 4961 ft | 135 kts | 17° |
| 2026-04-16 10:40 | 42.94814 | -91.98886 | 4966 ft | 135 kts | 17° |
| 2026-04-16 10:40 | 42.95643 | -91.98254 | 4954 ft | 135 kts | 17° |
| 2026-04-16 10:40 | 42.96465 | -91.97624 | 4954 ft | 135 kts | 17° |
| 2026-04-16 10:40 | 42.97298 | -91.96987 | 4947 ft | 136 kts | 17° |
| 2026-04-16 10:41 | 42.98119 | -91.96355 | 4957 ft | 134 kts | 17° |
| 2026-04-16 10:41 | 42.98938 | -91.95730 | 4946 ft | 135 kts | 17° |
| 2026-04-16 10:41 | 42.99761 | -91.95101 | 4945 ft | 135 kts | 17° |
| 2026-04-16 10:41 | 43.00585 | -91.94470 | 4957 ft | 134 kts | 17° |
| 2026-04-16 10:42 | 43.01409 | -91.93841 | 4943 ft | 135 kts | 17° |
| 2026-04-16 10:42 | 43.02228 | -91.93214 | 4950 ft | 135 kts | 17° |
| 2026-04-16 10:42 | 43.03062 | -91.92575 | 4948 ft | 135 kts | 17° |
| 2026-04-16 10:42 | 43.03877 | -91.91949 | 4949 ft | 135 kts | 17° |
| 2026-04-16 10:43 | 43.04710 | -91.91312 | 4948 ft | 136 kts | 17° |
| 2026-04-16 10:43 | 43.05524 | -91.90689 | 4945 ft | 136 kts | 18° |
| 2026-04-16 10:43 | 43.06355 | -91.90052 | 4948 ft | 136 kts | 18° |
| 2026-04-16 10:43 | 43.07183 | -91.89416 | 4951 ft | 135 kts | 17° |
| 2026-04-16 10:44 | 43.07999 | -91.88789 | 4957 ft | 135 kts | 17° |
| 2026-04-16 10:44 | 43.08824 | -91.88156 | 4948 ft | 135 kts | 18° |
| 2026-04-16 10:44 | 43.09394 | -91.87716 | 4956 ft | 135 kts | 17° |
| 2026-04-16 10:44 | 43.10414 | -91.86932 | 4955 ft | 135 kts | 17° |
| 2026-04-16 10:45 | 43.11214 | -91.86316 | 4959 ft | 135 kts | 17° |
| 2026-04-16 10:45 | 43.11709 | -91.85934 | 4957 ft | 136 kts | 17° |